Time;durP1;ratioP1;P1;durP2;ratioP2;P2;SDS_P1;SDS_P2;PMS_P1;PMS_P2;Temp;Humidity;BMP_temperature;BMP_pressure;BME280_temperature;BME280_humidity;BME280_pressure;Samples;Min_cycle;Max_cycle;Signal;HPM_P1;HPM_P2
2023/08/20 00:01:11;;;;;;;11.63;3.08;;;16.10;99.90;;;;;;5058529;28;20127;-71
2023/08/20 00:03:40;;;;;;;12.10;3.65;;;16.10;99.90;;;;;;5026771;28;20048;-72
2023/08/20 00:06:06;;;;;;;12.02;3.20;;;16.10;99.90;;;;;;5057140;28;20533;-72
2023/08/20 00:08:32;;;;;;;13.48;3.40;;;16.00;99.90;;;;;;5022413;28;20511;-71
2023/08/20 00:10:59;;;;;;;11.70;3.10;;;16.00;99.90;;;;;;5060534;28;20048;-70
2023/08/20 00:13:25;;;;;;;15.50;3.42;;;16.00;99.90;;;;;;5025195;28;20056;-70
2023/08/20 00:15:51;;;;;;;11.45;3.50;;;15.90;99.90;;;;;;5062093;28;20052;-70
2023/08/20 00:18:17;;;;;;;15.23;3.90;;;15.90;99.90;;;;;;5027307;28;20049;-73
2023/08/20 00:20:45;;;;;;;16.27;4.00;;;15.90;99.90;;;;;;5062378;28;20761;-72
2023/08/20 00:23:11;;;;;;;12.80;3.83;;;15.80;99.90;;;;;;5031209;28;20044;-69
2023/08/20 00:25:38;;;;;;;17.50;4.40;;;15.80;99.90;;;;;;5060915;28;20060;-70
2023/08/20 00:28:04;;;;;;;14.70;3.65;;;15.80;99.90;;;;;;5026546;28;20545;-72
2023/08/20 00:30:30;;;;;;;14.57;3.90;;;15.70;99.90;;;;;;5060131;28;20060;-71
2023/08/20 00:32:56;;;;;;;13.27;3.47;;;15.70;99.90;;;;;;5027875;28;20052;-70
2023/08/20 00:35:22;;;;;;;17.33;4.38;;;15.70;99.90;;;;;;5068115;28;20048;-71
2023/08/20 00:37:49;;;;;;;12.45;4.25;;;15.70;99.90;;;;;;5020583;28;20049;-71
2023/08/20 00:40:15;;;;;;;12.63;3.90;;;15.60;99.90;;;;;;5061012;28;20052;-72
2023/08/20 00:42:41;;;;;;;13.10;3.55;;;15.60;99.90;;;;;;5024725;28;20048;-71
2023/08/20 00:45:07;;;;;;;13.98;4.28;;;15.60;99.90;;;;;;5063853;28;20537;-72
2023/08/20 00:47:35;;;;;;;14.20;4.38;;;15.60;99.90;;;;;;5022196;28;20056;-70
2023/08/20 00:50:05;;;;;;;15.98;4.45;;;15.50;99.90;;;;;;5066567;28;20045;-70
2023/08/20 00:52:31;;;;;;;22.70;5.63;;;15.50;99.90;;;;;;5013871;28;99722;-72
2023/08/20 00:54:58;;;;;;;22.25;4.85;;;15.50;99.90;;;;;;5061201;28;20064;-70
2023/08/20 00:57:24;;;;;;;14.63;5.00;;;15.50;99.90;;;;;;5021678;28;20040;-70
2023/08/20 00:59:51;;;;;;;19.25;5.40;;;15.50;99.90;;;;;;5036615;28;20064;-71
2023/08/20 01:02:17;;;;;;;15.80;4.88;;;15.50;99.90;;;;;;5008632;28;20048;-71
2023/08/20 01:04:46;;;;;;;15.93;4.45;;;15.50;99.90;;;;;;5055135;28;20057;-70
2023/08/20 01:07:23;;;;;;;15.57;4.88;;;15.50;99.90;;;;;;5006584;28;20049;-71
2023/08/20 01:10:13;;;;;;;16.15;5.63;;;15.50;99.90;;;;;;5045385;28;20439;-71
2023/08/20 01:12:40;;;;;;;16.45;5.05;;;15.40;99.90;;;;;;4989207;28;20061;-69
2023/08/20 01:15:13;;;;;;;11.98;4.93;;;15.40;99.90;;;;;;5016423;28;20045;-70
2023/08/20 01:17:43;;;;;;;18.15;5.50;;;15.40;99.90;;;;;;5007138;28;20056;-71
2023/08/20 01:20:14;;;;;;;19.38;5.40;;;15.40;99.90;;;;;;5042861;28;20102;-71
2023/08/20 01:23:13;;;;;;;11.77;4.47;;;15.40;99.90;;;;;;4993072;28;20048;-71
2023/08/20 01:26:12;;;;;;;17.02;5.85;;;15.30;99.90;;;;;;5041264;28;20052;-70
2023/08/20 01:28:39;;;;;;;17.50;6.20;;;15.30;99.90;;;;;;4958639;28;20064;-70
2023/08/20 01:31:07;;;;;;;20.48;6.82;;;15.30;99.90;;;;;;5006817;28;20068;-72
2023/08/20 01:33:34;;;;;;;18.80;6.22;;;15.30;99.90;;;;;;4965248;28;20054;-71
2023/08/20 01:36:00;;;;;;;17.48;7.25;;;15.30;99.90;;;;;;5038468;28;20053;-72
2023/08/20 01:38:26;;;;;;;16.52;6.78;;;15.20;99.90;;;;;;4992601;28;20053;-70
2023/08/20 01:40:52;;;;;;;17.05;7.50;;;15.20;99.90;;;;;;5034882;28;20053;-71
2023/08/20 01:43:18;;;;;;;19.70;7.90;;;15.20;99.90;;;;;;4950395;28;20047;-70
2023/08/20 01:45:44;;;;;;;18.88;7.93;;;15.20;99.90;;;;;;5018127;28;20065;-70
2023/08/20 01:48:10;;;;;;;22.35;7.75;;;15.20;99.90;;;;;;4966153;28;20128;-70
2023/08/20 01:50:37;;;;;;;19.60;7.28;;;15.20;99.90;;;;;;5022955;28;20057;-71
2023/08/20 01:53:03;;;;;;;20.33;7.13;;;15.20;99.90;;;;;;5010995;28;160107;-71
2023/08/20 01:55:29;;;;;;;15.98;5.88;;;15.20;99.90;;;;;;5036707;28;20056;-72
2023/08/20 01:57:55;;;;;;;14.00;5.40;;;15.20;99.90;;;;;;5006890;28;20052;-72
2023/08/20 02:00:21;;;;;;;19.88;7.50;;;15.20;99.90;;;;;;5037744;28;20041;-70
2023/08/20 02:02:47;;;;;;;18.02;7.05;;;15.10;99.90;;;;;;5007131;28;20080;-70
2023/08/20 02:05:13;;;;;;;16.23;6.78;;;15.10;99.90;;;;;;5040390;28;20061;-70
2023/08/20 02:07:39;;;;;;;15.90;6.55;;;15.10;99.90;;;;;;4998749;28;20061;-71
2023/08/20 02:10:06;;;;;;;17.75;6.97;;;15.10;99.90;;;;;;5038161;28;20056;-71
2023/08/20 02:12:32;;;;;;;16.23;7.70;;;15.10;99.90;;;;;;4999615;28;20495;-72
2023/08/20 02:14:59;;;;;;;18.70;7.85;;;15.10;99.90;;;;;;5052182;28;20059;-70
2023/08/20 02:17:25;;;;;;;23.67;8.82;;;15.10;99.90;;;;;;5002756;28;20044;-71
2023/08/20 02:19:51;;;;;;;25.02;9.07;;;15.10;99.90;;;;;;5030439;28;20062;-71
2023/08/20 02:22:19;;;;;;;20.30;9.45;;;15.20;99.90;;;;;;4998617;28;20076;-71
2023/08/20 02:24:45;;;;;;;18.88;8.73;;;15.30;99.90;;;;;;5034262;28;20057;-71
2023/08/20 02:27:11;;;;;;;19.80;8.80;;;15.30;99.90;;;;;;4996959;28;20049;-70
2023/08/20 02:29:37;;;;;;;23.10;8.93;;;15.30;99.90;;;;;;5041985;28;20064;-73
2023/08/20 02:32:03;;;;;;;16.10;8.23;;;15.30;99.90;;;;;;4998220;28;20044;-73
2023/08/20 02:34:29;;;;;;;18.38;7.38;;;15.30;99.90;;;;;;5047581;28;20053;-71
2023/08/20 02:36:55;;;;;;;21.00;8.55;;;15.30;99.90;;;;;;5002499;28;20151;-71
2023/08/20 02:39:21;;;;;;;16.75;8.18;;;15.20;99.90;;;;;;5046691;28;20049;-71
2023/08/20 02:41:47;;;;;;;20.35;8.10;;;15.20;99.90;;;;;;4999160;28;20431;-71
2023/08/20 02:44:13;;;;;;;15.65;7.80;;;15.20;99.90;;;;;;5055792;28;20060;-70
2023/08/20 02:46:40;;;;;;;18.38;8.18;;;15.20;99.90;;;;;;5020955;28;20056;-71
2023/08/20 02:49:06;;;;;;;14.57;7.03;;;15.20;99.90;;;;;;5071798;28;20056;-71
2023/08/20 02:51:32;;;;;;;16.55;6.90;;;15.20;99.90;;;;;;5055429;28;20144;-70
2023/08/20 02:53:58;;;;;;;20.63;7.85;;;15.10;99.90;;;;;;5015627;28;178066;-72
2023/08/20 02:56:24;;;;;;;26.48;7.80;;;15.10;99.90;;;;;;5055928;28;20052;-69
2023/08/20 02:58:50;;;;;;;18.80;7.25;;;15.10;99.90;;;;;;5024770;28;20059;-71
2023/08/20 03:01:25;;;;;;;16.67;7.93;;;15.10;99.90;;;;;;5059535;28;20052;-72
2023/08/20 03:03:51;;;;;;;16.90;7.10;;;15.00;99.90;;;;;;5019332;28;20050;-71
2023/08/20 03:06:17;;;;;;;16.00;8.20;;;15.00;99.90;;;;;;5060628;28;20060;-71
2023/08/20 03:08:43;;;;;;;20.85;8.20;;;15.00;99.90;;;;;;5016085;28;20529;-70
2023/08/20 03:11:09;;;;;;;18.45;7.18;;;15.00;99.90;;;;;;5065580;28;20527;-73
2023/08/20 03:13:36;;;;;;;19.02;7.78;;;15.00;99.90;;;;;;5025760;28;20094;-70
2023/08/20 03:16:03;;;;;;;18.48;8.25;;;15.00;99.90;;;;;;5064461;28;20049;-71
2023/08/20 03:18:29;;;;;;;19.02;7.38;;;15.00;99.90;;;;;;5044050;28;20036;-71
2023/08/20 03:20:56;;;;;;;19.98;8.38;;;14.90;99.90;;;;;;5056092;28;20053;-72
2023/08/20 03:23:23;;;;;;;19.60;8.02;;;14.90;99.90;;;;;;5027613;28;20415;-73
2023/08/20 03:25:49;;;;;;;14.13;6.70;;;14.80;99.90;;;;;;5062890;28;20067;-71
2023/08/20 03:28:18;;;;;;;17.88;8.23;;;14.80;99.90;;;;;;5034000;28;20048;-71
2023/08/20 03:30:44;;;;;;;14.77;7.50;;;14.80;99.90;;;;;;5067295;28;20056;-71
2023/08/20 03:33:10;;;;;;;19.27;8.32;;;14.80;99.90;;;;;;5028855;28;20048;-71
2023/08/20 03:35:36;;;;;;;14.18;7.00;;;14.70;99.90;;;;;;5065035;28;20049;-71
2023/08/20 03:38:02;;;;;;;14.32;6.47;;;14.70;99.90;;;;;;5014383;28;20055;-70
2023/08/20 03:40:28;;;;;;;14.13;6.80;;;14.70;99.90;;;;;;5061285;28;20049;-70
2023/08/20 03:42:54;;;;;;;17.73;7.82;;;14.60;99.90;;;;;;5035612;28;20049;-71
2023/08/20 03:45:21;;;;;;;17.02;7.18;;;14.60;99.90;;;;;;5064211;28;20057;-72
2023/08/20 03:47:47;;;;;;;13.65;6.22;;;14.60;99.90;;;;;;5010741;28;20049;-71
2023/08/20 03:50:13;;;;;;;17.67;7.50;;;14.60;99.90;;;;;;5056463;28;20060;-71
2023/08/20 03:52:39;;;;;;;15.98;7.78;;;14.50;99.90;;;;;;5007183;28;89819;-73
2023/08/20 03:55:06;;;;;;;20.20;7.95;;;14.50;99.90;;;;;;5059374;28;20127;-71
2023/08/20 03:57:32;;;;;;;19.42;7.35;;;14.50;99.90;;;;;;5027722;28;20057;-71
2023/08/20 03:59:58;;;;;;;16.17;7.60;;;14.50;99.90;;;;;;5065664;28;20115;-71
2023/08/20 04:02:24;;;;;;;23.67;8.23;;;14.60;99.90;;;;;;5029106;28;20056;-72
2023/08/20 04:04:50;;;;;;;21.13;8.48;;;14.60;99.90;;;;;;5068034;28;20056;-72
2023/08/20 04:07:18;;;;;;;21.00;9.32;;;14.60;99.90;;;;;;5033225;28;20052;-71
2023/08/20 04:09:44;;;;;;;19.20;8.63;;;14.70;99.90;;;;;;5056963;28;20259;-72
2023/08/20 04:12:10;;;;;;;20.65;8.15;;;14.70;99.90;;;;;;5020530;28;20057;-72
2023/08/20 04:14:36;;;;;;;19.13;8.52;;;14.70;99.90;;;;;;5052103;28;20064;-72
2023/08/20 04:17:02;;;;;;;21.90;8.75;;;14.60;99.90;;;;;;5021095;28;20048;-72
2023/08/20 04:19:28;;;;;;;20.05;8.90;;;14.60;99.90;;;;;;5058678;28;20052;-72
2023/08/20 04:21:54;;;;;;;17.73;8.70;;;14.60;99.90;;;;;;5018534;28;20534;-73
2023/08/20 04:24:20;;;;;;;14.80;7.95;;;14.60;99.90;;;;;;5058444;28;20052;-72
2023/08/20 04:26:46;;;;;;;17.23;9.15;;;14.60;99.90;;;;;;5018745;28;20060;-72
2023/08/20 04:29:12;;;;;;;18.77;8.88;;;14.60;99.90;;;;;;5039881;28;20063;-72
2023/08/20 04:31:39;;;;;;;16.10;8.57;;;14.60;99.90;;;;;;5022514;28;20049;-72
2023/08/20 04:34:05;;;;;;;18.48;9.20;;;14.60;99.90;;;;;;5039916;28;20115;-70
2023/08/20 04:36:31;;;;;;;25.60;9.25;;;14.60;99.90;;;;;;5062169;28;20052;-68
2023/08/20 04:38:57;;;;;;;19.00;9.27;;;14.70;99.90;;;;;;5025458;28;20052;-72
2023/08/20 04:41:23;;;;;;;19.15;9.13;;;14.70;99.90;;;;;;5060581;28;20051;-74
2023/08/20 04:43:49;;;;;;;19.67;9.18;;;14.70;99.90;;;;;;5035060;28;20040;-71
2023/08/20 04:46:15;;;;;;;17.13;7.95;;;14.70;99.90;;;;;;5059114;28;20061;-71
2023/08/20 04:48:41;;;;;;;18.00;8.35;;;14.80;99.90;;;;;;5018797;28;20051;-71
2023/08/20 04:51:07;;;;;;;21.42;9.50;;;14.70;99.90;;;;;;5057582;28;20395;-72
2023/08/20 04:53:33;;;;;;;18.42;7.97;;;14.80;99.90;;;;;;5003519;28;246955;-71
2023/08/20 04:55:59;;;;;;;18.15;8.98;;;14.80;99.90;;;;;;5059605;28;20055;-72
2023/08/20 04:58:26;;;;;;;19.52;9.27;;;14.90;99.90;;;;;;5024656;28;20056;-74
2023/08/20 05:00:52;;;;;;;20.45;8.88;;;14.90;99.90;;;;;;5060558;28;20079;-72
2023/08/20 05:03:18;;;;;;;16.90;9.10;;;15.00;99.90;;;;;;5020293;28;20045;-71
2023/08/20 05:05:49;;;;;;;18.15;8.45;;;15.00;99.90;;;;;;5070258;28;20415;-71
2023/08/20 05:08:15;;;;;;;17.75;8.43;;;15.10;99.90;;;;;;5020728;28;20076;-73
2023/08/20 05:10:41;;;;;;;19.10;8.70;;;15.10;99.90;;;;;;5053494;28;20059;-75
2023/08/20 05:13:08;;;;;;;18.17;8.90;;;15.20;99.90;;;;;;5010622;28;20103;-74
2023/08/20 05:15:34;;;;;;;20.67;9.05;;;15.30;99.90;;;;;;5056684;28;20056;-72
2023/08/20 05:18:00;;;;;;;19.17;9.20;;;15.40;99.90;;;;;;5021848;28;20052;-71
2023/08/20 05:20:26;;;;;;;17.73;8.30;;;15.70;99.90;;;;;;5061144;28;20041;-71
2023/08/20 05:22:52;;;;;;;19.58;8.88;;;16.00;99.90;;;;;;5015518;28;20055;-71
2023/08/20 05:25:19;;;;;;;18.02;8.38;;;16.30;99.90;;;;;;5048356;28;20049;-73
2023/08/20 05:27:45;;;;;;;17.48;7.65;;;16.40;99.90;;;;;;5020165;28;20052;-71
2023/08/20 05:30:11;;;;;;;17.20;7.70;;;16.70;99.90;;;;;;5061490;28;20682;-72
2023/08/20 05:32:37;;;;;;;18.38;6.88;;;16.90;99.90;;;;;;5017346;28;20051;-73
2023/08/20 05:35:04;;;;;;;15.70;6.75;;;17.10;99.90;;;;;;5057354;28;20068;-72
2023/08/20 05:37:30;;;;;;;16.35;6.80;;;17.30;99.90;;;;;;5013409;28;20654;-73
2023/08/20 05:39:56;;;;;;;14.85;7.30;;;17.50;99.90;;;;;;5045748;28;20055;-72
2023/08/20 05:42:22;;;;;;;13.07;6.25;;;17.70;99.90;;;;;;5021608;28;64202;-72
2023/08/20 05:44:48;;;;;;;15.05;6.28;;;17.90;99.90;;;;;;5064939;28;20059;-73
2023/08/20 05:47:14;;;;;;;16.20;6.10;;;18.10;99.90;;;;;;5023989;28;20049;-71
2023/08/20 05:49:40;;;;;;;15.35;5.70;;;18.20;99.90;;;;;;5063026;28;20060;-72
2023/08/20 05:52:06;;;;;;;15.55;6.35;;;18.50;99.90;;;;;;4995292;28;74230;-72
2023/08/20 05:54:32;;;;;;;15.02;5.63;;;18.60;99.90;;;;;;5038100;28;20056;-72
2023/08/20 05:56:59;;;;;;;15.55;5.30;;;18.90;99.90;;;;;;5004063;28;20064;-71
2023/08/20 05:59:25;;;;;;;15.55;4.97;;;19.10;99.90;;;;;;5056872;28;20057;-72
2023/08/20 06:01:53;;;;;;;13.43;5.00;;;19.20;99.90;;;;;;5002233;28;20053;-72
2023/08/20 06:04:19;;;;;;;16.15;5.10;;;19.30;99.90;;;;;;5048476;28;20049;-72
2023/08/20 06:06:45;;;;;;;14.60;4.93;;;19.40;99.90;;;;;;4998306;28;20403;-73
2023/08/20 06:09:11;;;;;;;14.27;4.65;;;19.60;99.90;;;;;;5035536;28;20087;-72
2023/08/20 06:11:37;;;;;;;14.85;4.60;;;19.80;99.90;;;;;;5005934;28;20041;-69
2023/08/20 06:14:03;;;;;;;14.93;4.55;;;19.80;99.90;;;;;;5049713;28;20053;-72
2023/08/20 06:16:30;;;;;;;12.38;4.30;;;20.00;99.90;;;;;;5039558;28;20052;-71
2023/08/20 06:18:58;;;;;;;16.20;4.47;;;20.10;99.90;;;;;;5010917;28;20053;-71
2023/08/20 06:21:24;;;;;;;13.23;3.42;;;20.40;99.90;;;;;;5037457;28;20063;-73
2023/08/20 06:23:50;;;;;;;14.85;4.05;;;20.50;99.90;;;;;;4996127;28;20049;-71
2023/08/20 06:26:16;;;;;;;13.77;3.90;;;20.50;99.90;;;;;;5037901;28;20278;-72
2023/08/20 06:28:42;;;;;;;14.52;3.45;;;20.70;99.90;;;;;;5016674;28;20053;-71
2023/08/20 06:31:08;;;;;;;16.15;3.63;;;20.90;99.90;;;;;;5037036;28;20490;-72
2023/08/20 06:33:34;;;;;;;15.57;3.78;;;20.90;99.90;;;;;;5005858;28;20053;-72
2023/08/20 06:36:00;;;;;;;16.02;3.78;;;20.90;99.90;;;;;;5045453;28;20049;-71
2023/08/20 06:38:26;;;;;;;14.50;3.90;;;21.00;99.90;;;;;;5003702;28;20620;-71
2023/08/20 06:40:53;;;;;;;14.10;3.80;;;21.20;99.90;;;;;;5040777;28;20045;-71
2023/08/20 06:43:19;;;;;;;13.40;3.33;;;21.20;99.90;;;;;;5032413;28;20040;-72
2023/08/20 06:45:45;;;;;;;13.57;3.72;;;21.30;99.90;;;;;;5041732;28;20057;-71
2023/08/20 06:48:11;;;;;;;12.93;3.65;;;21.20;99.90;;;;;;5029329;28;20044;-71
2023/08/20 06:50:37;;;;;;;14.00;3.85;;;21.40;99.90;;;;;;5046355;28;20049;-71
2023/08/20 06:53:05;;;;;;;15.55;3.72;;;21.50;99.90;;;;;;4991941;28;169354;-72
2023/08/20 06:55:31;;;;;;;15.13;3.70;;;21.80;99.90;;;;;;5036794;28;20389;-71
2023/08/20 06:57:57;;;;;;;14.23;3.42;;;22.00;99.90;;;;;;5015371;28;20056;-70
2023/08/20 07:00:23;;;;;;;13.27;3.50;;;22.10;99.90;;;;;;5037341;28;20037;-71
2023/08/20 07:02:49;;;;;;;15.88;3.70;;;22.20;99.90;;;;;;5015331;28;20055;-71
2023/08/20 07:05:16;;;;;;;13.90;3.70;;;22.10;99.90;;;;;;5044888;28;20056;-71
2023/08/20 07:07:43;;;;;;;11.25;3.38;;;22.10;99.90;;;;;;5017250;28;20047;-71
2023/08/20 07:10:09;;;;;;;15.18;3.80;;;22.20;99.90;;;;;;5045654;28;20068;-72
2023/08/20 07:12:35;;;;;;;12.57;3.25;;;22.20;99.90;;;;;;5014031;28;20049;-72
2023/08/20 07:15:01;;;;;;;13.07;3.60;;;22.40;99.90;;;;;;5039902;28;20640;-72
2023/08/20 07:17:27;;;;;;;13.77;3.30;;;22.50;99.90;;;;;;5014619;28;20056;-71
2023/08/20 07:19:53;;;;;;;13.70;3.00;;;22.50;99.90;;;;;;5046871;28;20060;-71
2023/08/20 07:22:19;;;;;;;15.18;3.30;;;22.70;99.90;;;;;;5005567;28;20418;-71
2023/08/20 07:24:45;;;;;;;12.77;3.03;;;23.00;99.90;;;;;;5052062;28;20053;-71
2023/08/20 07:27:12;;;;;;;12.93;3.15;;;23.30;99.90;;;;;;5030034;28;20059;-71
2023/08/20 07:29:38;;;;;;;13.57;3.38;;;23.50;99.90;;;;;;5044284;28;20538;-71
2023/08/20 07:32:05;;;;;;;13.05;3.20;;;23.60;99.90;;;;;;5004576;28;20067;-71
2023/08/20 07:34:31;;;;;;;13.73;3.05;;;23.40;99.90;;;;;;5055104;28;20524;-71
2023/08/20 07:36:57;;;;;;;10.65;2.80;;;23.50;99.90;;;;;;5005009;28;20062;-70
2023/08/20 07:39:23;;;;;;;15.52;3.05;;;23.60;99.90;;;;;;5051186;28;20056;-71
2023/08/20 07:41:49;;;;;;;15.07;3.13;;;23.60;99.90;;;;;;5007014;28;20045;-70
2023/08/20 07:44:15;;;;;;;13.75;2.88;;;23.70;99.90;;;;;;5046006;28;20041;-71
2023/08/20 07:46:41;;;;;;;11.73;3.00;;;23.80;99.90;;;;;;5002783;28;20072;-72
2023/08/20 07:49:07;;;;;;;14.80;2.90;;;24.10;99.90;;;;;;5056563;28;20049;-71
2023/08/20 07:51:34;;;;;;;11.40;2.38;;;24.20;99.90;;;;;;5032865;28;20492;-67
2023/08/20 07:54:00;;;;;;;15.60;2.85;;;24.20;99.90;;;;;;5006444;28;31602;-71
2023/08/20 07:56:26;;;;;;;13.57;2.50;;;24.00;99.90;;;;;;5043674;28;20076;-71
2023/08/20 07:58:52;;;;;;;12.48;2.58;;;24.10;99.90;;;;;;4996308;28;20050;-71
2023/08/20 08:01:18;;;;;;;11.23;2.60;;;24.30;99.90;;;;;;5043026;28;20049;-71
2023/08/20 08:03:44;;;;;;;12.15;2.80;;;24.30;99.90;;;;;;5002620;28;20049;-71
2023/08/20 08:06:11;;;;;;;14.95;2.90;;;24.60;99.90;;;;;;5040559;28;20772;-71
2023/08/20 08:08:42;;;;;;;11.10;2.40;;;24.80;99.90;;;;;;5001798;28;20045;-71
2023/08/20 08:11:08;;;;;;;11.63;2.63;;;25.00;99.90;;;;;;5038700;28;20444;-71
2023/08/20 08:13:34;;;;;;;15.73;2.55;;;25.20;99.90;;;;;;5018487;28;20067;-70
2023/08/20 08:16:00;;;;;;;11.93;2.40;;;25.20;99.90;;;;;;5033926;28;20052;-72
2023/08/20 08:18:26;;;;;;;11.40;2.05;;;25.20;99.90;;;;;;5000750;28;20048;-71
2023/08/20 08:20:52;;;;;;;13.52;2.35;;;25.30;99.90;;;;;;5037565;28;20057;-71
2023/08/20 08:23:19;;;;;;;11.38;2.00;;;25.10;99.90;;;;;;5013499;28;20100;-72
2023/08/20 08:25:45;;;;;;;11.65;2.58;;;25.40;99.90;;;;;;5039382;28;20079;-72
2023/08/20 08:28:11;;;;;;;13.35;2.45;;;25.70;99.90;;;;;;5001925;28;20053;-71
2023/08/20 08:30:38;;;;;;;11.00;2.30;;;25.70;99.90;;;;;;5038141;28;20057;-71
2023/08/20 08:33:04;;;;;;;12.95;2.10;;;26.10;99.90;;;;;;5023877;28;20057;-72
2023/08/20 08:35:30;;;;;;;11.75;2.03;;;25.90;99.90;;;;;;5042794;28;20424;-73
2023/08/20 08:37:57;;;;;;;10.82;2.30;;;26.10;99.80;;;;;;5011984;28;20502;-71
2023/08/20 08:40:29;;;;;;;10.70;2.10;;;26.40;99.70;;;;;;5038163;28;20056;-71
2023/08/20 08:42:55;;;;;;;13.27;2.45;;;26.60;99.00;;;;;;5012696;28;20056;-71
2023/08/20 08:45:21;;;;;;;12.27;2.55;;;26.40;98.50;;;;;;5038732;28;20044;-71
2023/08/20 08:47:49;;;;;;;12.88;2.30;;;26.50;99.50;;;;;;5007257;28;20080;-72
2023/08/20 08:50:15;;;;;;;14.13;2.38;;;26.80;99.60;;;;;;5042422;28;20049;-71
2023/08/20 08:52:42;;;;;;;11.40;2.10;;;27.00;98.80;;;;;;4990187;28;80012;-71
2023/08/20 08:55:08;;;;;;;15.75;2.30;;;27.40;98.70;;;;;;5038037;28;20067;-71
2023/08/20 08:57:36;;;;;;;13.38;2.30;;;27.60;98.70;;;;;;5014151;28;20734;-70
2023/08/20 09:00:04;;;;;;;11.75;2.38;;;27.70;97.90;;;;;;5053354;28;20052;-71
2023/08/20 09:02:30;;;;;;;11.00;1.90;;;27.60;97.90;;;;;;5030858;28;20106;-71
2023/08/20 09:04:57;;;;;;;10.88;1.80;;;27.60;97.80;;;;;;5070467;28;20048;-71
2023/08/20 09:07:23;;;;;;;11.32;2.28;;;27.50;97.40;;;;;;5018784;28;20045;-71
2023/08/20 09:09:49;;;;;;;12.88;1.95;;;27.30;97.30;;;;;;5052646;28;20049;-71
2023/08/20 09:12:24;;;;;;;10.18;1.77;;;27.70;97.70;;;;;;5013213;28;20048;-71
2023/08/20 09:14:51;;;;;;;11.00;1.98;;;28.40;96.50;;;;;;5037381;28;20044;-71
2023/08/20 09:17:19;;;;;;;8.95;1.67;;;28.30;96.00;;;;;;5021671;28;20048;-72
2023/08/20 09:19:46;;;;;;;9.85;1.80;;;28.60;96.10;;;;;;5056902;28;20052;-71
2023/08/20 09:22:14;;;;;;;10.30;1.83;;;28.70;95.70;;;;;;5019874;28;20045;-71
2023/08/20 09:24:52;;;;;;;11.70;2.00;;;29.10;95.90;;;;;;5057142;28;20506;-70
2023/08/20 09:27:18;;;;;;;10.80;1.90;;;29.30;95.00;;;;;;5013165;28;20548;-70
2023/08/20 09:29:48;;;;;;;9.60;1.80;;;29.10;95.30;;;;;;5047360;28;20056;-72
2023/08/20 09:32:19;;;;;;;11.45;2.20;;;29.30;95.40;;;;;;5021295;28;20089;-70
2023/08/20 09:34:47;;;;;;;11.10;1.80;;;29.60;95.30;;;;;;5056034;28;20068;-71
2023/08/20 09:37:14;;;;;;;10.27;2.08;;;28.70;95.40;;;;;;5014399;28;20120;-72
2023/08/20 09:39:41;;;;;;;11.52;2.10;;;27.60;95.90;;;;;;5045119;28;20103;-70
2023/08/20 09:42:09;;;;;;;10.95;1.77;;;27.20;96.70;;;;;;5020429;28;20082;-70
2023/08/20 09:44:38;;;;;;;10.88;2.08;;;26.90;96.50;;;;;;5052169;28;20056;-72
2023/08/20 09:47:09;;;;;;;9.35;2.05;;;26.50;96.70;;;;;;5019021;28;20045;-70
2023/08/20 09:49:38;;;;;;;10.07;1.90;;;26.80;97.00;;;;;;5057660;28;20048;-72
2023/08/20 09:52:07;;;;;;;10.57;2.28;;;27.90;96.20;;;;;;4998447;28;256945;-72
2023/08/20 09:54:52;;;;;;;12.93;2.13;;;28.90;95.40;;;;;;5049656;28;20518;-71
2023/08/20 09:57:35;;;;;;;11.95;2.10;;;29.60;94.90;;;;;;5022535;28;20629;-70
2023/08/20 10:00:05;;;;;;;10.73;1.77;;;29.60;94.30;;;;;;5060661;28;20059;-70
2023/08/20 10:02:33;;;;;;;9.97;1.80;;;29.90;94.50;;;;;;5030822;28;20044;-71
2023/08/20 10:05:02;;;;;;;10.57;1.92;;;29.40;94.30;;;;;;5061905;28;20318;-71
2023/08/20 10:07:32;;;;;;;11.95;2.30;;;29.40;94.60;;;;;;5023417;28;20041;-70
2023/08/20 10:10:00;;;;;;;11.95;2.10;;;29.10;94.30;;;;;;5048645;28;20083;-70
2023/08/20 10:12:27;;;;;;;12.38;2.25;;;29.40;94.80;;;;;;5019256;28;20049;-70
2023/08/20 10:14:58;;;;;;;10.43;1.70;;;29.70;94.50;;;;;;5051659;28;20502;-72
2023/08/20 10:17:24;;;;;;;;;;;30.10;94.30;;;;;;5015912;28;20306;-69
2023/08/20 10:19:53;;;;;;;10.88;1.90;;;30.30;93.30;;;;;;5047237;28;20591;-71
2023/08/20 10:22:20;;;;;;;12.37;2.30;;;30.30;94.10;;;;;;5017085;28;20059;-71
2023/08/20 10:24:52;;;;;;;10.93;1.77;;;30.80;93.90;;;;;;5063474;28;20048;-70
2023/08/20 10:27:33;;;;;;;11.98;2.08;;;31.00;92.50;;;;;;5023326;28;20757;-70
2023/08/20 10:30:00;;;;;;;11.05;2.03;;;30.40;92.60;;;;;;5058482;28;20156;-73
2023/08/20 10:32:51;;;;;;;10.52;1.90;;;29.90;93.80;;;;;;5014982;28;20065;-70
2023/08/20 10:35:28;;;;;;;11.63;1.92;;;29.50;93.30;;;;;;5057347;28;20063;-71
2023/08/20 10:38:02;;;;;;;10.07;2.03;;;28.90;93.90;;;;;;5018932;28;20131;-71
2023/08/20 10:40:57;;;;;;;11.23;2.10;;;28.90;94.20;;;;;;5056959;28;20052;-71
2023/08/20 10:43:27;;;;;;;9.80;1.80;;;28.90;93.60;;;;;;5022598;28;20055;-70
2023/08/20 10:46:27;;;;;;;9.45;1.90;;;29.20;94.20;;;;;;5051566;28;20552;-70
2023/08/20 10:48:56;;;;;;;11.43;2.03;;;29.50;94.00;;;;;;5028066;28;20052;-72
2023/08/20 10:51:33;;;;;;;9.27;1.80;;;29.00;94.40;;;;;;5056958;28;20052;-71
2023/08/20 10:54:05;;;;;;;10.38;1.80;;;29.40;93.30;;;;;;5010226;28;20090;-71
2023/08/20 10:56:42;;;;;;;8.52;1.80;;;29.90;93.50;;;;;;5052409;28;20064;-70
2023/08/20 10:59:22;;;;;;;12.20;1.88;;;30.30;92.80;;;;;;4997995;28;20716;-74
2023/08/20 11:01:50;;;;;;;10.80;1.88;;;30.10;93.60;;;;;;4998588;28;20057;-72
2023/08/20 11:04:22;;;;;;;10.25;1.70;;;29.50;93.60;;;;;;5050422;28;20053;-70
2023/08/20 11:06:54;;;;;;;9.35;1.83;;;29.40;93.70;;;;;;4990040;28;20534;-71
2023/08/20 11:09:25;;;;;;;8.27;1.55;;;29.40;93.80;;;;;;5023265;28;20169;-71
2023/08/20 11:11:52;;;;;;;8.93;1.67;;;29.90;92.60;;;;;;4995648;28;20057;-72
2023/08/20 11:14:19;;;;;;;9.95;1.70;;;29.90;92.70;;;;;;5051276;28;20068;-71
2023/08/20 11:16:47;;;;;;;10.30;1.75;;;30.00;92.90;;;;;;4997174;28;20061;-74
2023/08/20 11:19:13;;;;;;;8.45;1.55;;;30.20;92.90;;;;;;5048441;28;20056;-71
2023/08/20 11:21:41;;;;;;;8.40;1.50;;;29.90;92.80;;;;;;4997559;28;20055;-71
2023/08/20 11:24:09;;;;;;;10.07;1.63;;;30.30;93.10;;;;;;5051220;28;20052;-74
2023/08/20 11:26:38;;;;;;;8.70;1.45;;;30.50;92.80;;;;;;5020078;28;20053;-71
2023/08/20 11:29:08;;;;;;;9.73;1.63;;;30.30;92.40;;;;;;5016860;28;20395;-71
2023/08/20 11:31:36;;;;;;;10.40;1.60;;;29.80;92.60;;;;;;5011283;28;20044;-72
2023/08/20 11:34:03;;;;;;;9.10;1.50;;;29.80;93.50;;;;;;4990532;28;20053;-71
2023/08/20 11:36:30;;;;;;;9.77;1.92;;;30.20;93.10;;;;;;5038965;28;20060;-72
2023/08/20 11:38:56;;;;;;;8.38;2.13;;;30.00;92.60;;;;;;5026257;28;20051;-73
2023/08/20 11:41:24;;;;;;;25.38;15.57;;;29.50;92.50;;;;;;5054696;28;20048;-72
2023/08/20 11:43:51;;;;;;;13.25;3.70;;;29.30;93.10;;;;;;5019051;28;20045;-72
2023/08/20 11:46:22;;;;;;;9.38;2.00;;;29.30;93.30;;;;;;5038921;28;20511;-71
2023/08/20 11:49:03;;;;;;;9.93;1.90;;;29.20;92.80;;;;;;5016259;28;20053;-70
2023/08/20 11:51:39;;;;;;;;;;;29.20;91.80;;;;;;5040564;28;20054;-70
2023/08/20 11:54:12;;;;;;;10.68;2.40;;;29.50;91.90;;;;;;5007018;28;19920;-71
2023/08/20 11:56:44;;;;;;;8.48;1.63;;;29.70;92.40;;;;;;5010387;28;20062;-70
2023/08/20 11:59:11;;;;;;;8.52;1.48;;;29.90;92.30;;;;;;5055466;28;20064;-72
2023/08/20 12:01:38;;;;;;;9.60;1.80;;;30.20;92.10;;;;;;5010249;28;20053;-71
2023/08/20 12:04:05;;;;;;;10.15;2.63;;;30.00;92.30;;;;;;5041985;28;20662;-70
2023/08/20 12:06:31;;;;;;;10.40;2.08;;;29.90;92.80;;;;;;5034649;28;20065;-69
2023/08/20 12:08:58;;;;;;;10.30;1.67;;;30.10;92.50;;;;;;5024173;28;20051;-69
2023/08/20 12:11:28;;;;;;;8.00;1.60;;;30.00;92.20;;;;;;5046037;28;20071;-72
2023/08/20 12:13:55;;;;;;;9.25;1.85;;;30.00;92.40;;;;;;5028412;28;20052;-70
2023/08/20 12:16:23;;;;;;;8.32;1.63;;;30.10;91.80;;;;;;5070836;28;20534;-71
2023/08/20 12:18:49;;;;;;;8.68;1.80;;;29.60;91.90;;;;;;4983132;28;20049;-70
2023/08/20 12:21:15;;;;;;;8.00;1.50;;;29.50;92.20;;;;;;5036747;28;20053;-70
2023/08/20 12:23:42;;;;;;;8.43;1.50;;;29.20;92.20;;;;;;5018715;28;20538;-72
2023/08/20 12:26:08;;;;;;;10.30;2.00;;;29.20;92.10;;;;;;5038536;28;20380;-71
2023/08/20 12:28:34;;;;;;;10.07;1.50;;;29.20;92.10;;;;;;5008770;28;20059;-70
2023/08/20 12:31:00;;;;;;;8.15;1.35;;;29.70;91.90;;;;;;5036321;28;20048;-71
2023/08/20 12:33:28;;;;;;;7.15;1.40;;;30.20;91.20;;;;;;5009313;28;20041;-70
2023/08/20 12:35:55;;;;;;;8.35;1.70;;;29.70;91.10;;;;;;5034921;28;20049;-73
2023/08/20 12:38:21;;;;;;;8.90;1.70;;;29.90;91.60;;;;;;5019239;28;20046;-73
2023/08/20 12:40:48;;;;;;;8.30;1.63;;;30.20;91.60;;;;;;5039479;28;20432;-71